sensor_id;sensor_type;location;lat;lon;timestamp;pressure;altitude;pressure_sealevel;temperature;humidity
52957;BME280;38819;42.692;23.342;2022-09-17T00:00:14;94483.38;;;19.23;78.31
52957;BME280;38819;42.692;23.342;2022-09-17T00:02:39;94468.53;;;19.24;78.28
52957;BME280;38819;42.692;23.342;2022-09-17T00:05:07;94466.59;;;19.24;78.13
52957;BME280;38819;42.692;23.342;2022-09-17T00:07:34;94465.16;;;19.34;77.51
52957;BME280;38819;42.692;23.342;2022-09-17T00:09:59;94460.38;;;19.28;78.05
52957;BME280;38819;42.692;23.342;2022-09-17T00:12:24;94452.53;;;19.26;78.21
52957;BME280;38819;42.692;23.342;2022-09-17T00:14:50;94456.50;;;19.29;77.99
52957;BME280;38819;42.692;23.342;2022-09-17T00:17:15;94441.38;;;19.38;77.74
52957;BME280;38819;42.692;23.342;2022-09-17T00:19:41;94424.44;;;19.06;78.98
52957;BME280;38819;42.692;23.342;2022-09-17T00:22:06;94434.28;;;19.11;78.73
52957;BME280;38819;42.692;23.342;2022-09-17T00:24:31;94450.03;;;19.17;78.39
52957;BME280;38819;42.692;23.342;2022-09-17T00:26:57;94429.25;;;19.13;78.85
52957;BME280;38819;42.692;23.342;2022-09-17T00:29:23;94439.72;;;19.07;79.17
52957;BME280;38819;42.692;23.342;2022-09-17T00:31:48;94439.34;;;19.09;78.89
52957;BME280;38819;42.692;23.342;2022-09-17T00:34:14;94438.69;;;19.15;78.51
52957;BME280;38819;42.692;23.342;2022-09-17T00:36:40;94436.91;;;19.03;78.98
52957;BME280;38819;42.692;23.342;2022-09-17T00:39:10;94451.88;;;19.10;79.12
52957;BME280;38819;42.692;23.342;2022-09-17T00:41:36;94452.25;;;19.08;79.08
52957;BME280;38819;42.692;23.342;2022-09-17T00:47:14;94465.13;;;19.07;78.91
52957;BME280;38819;42.692;23.342;2022-09-17T00:49:40;94456.06;;;19.03;79.15
52957;BME280;38819;42.692;23.342;2022-09-17T00:52:12;94465.88;;;19.04;78.39
52957;BME280;38819;42.692;23.342;2022-09-17T00:54:41;94455.88;;;19.16;78.40
52957;BME280;38819;42.692;23.342;2022-09-17T00:57:07;94477.56;;;19.01;78.69
52957;BME280;38819;42.692;23.342;2022-09-17T00:59:33;94476.75;;;19.01;78.17
52957;BME280;38819;42.692;23.342;2022-09-17T01:01:59;94452.66;;;19.10;77.96
52957;BME280;38819;42.692;23.342;2022-09-17T01:04:26;94471.25;;;19.01;77.93
52957;BME280;38819;42.692;23.342;2022-09-17T01:10:07;94467.50;;;19.09;77.53
52957;BME280;38819;42.692;23.342;2022-09-17T01:15:25;94452.25;;;19.08;78.18
52957;BME280;38819;42.692;23.342;2022-09-17T01:28:44;94453.22;;;18.96;78.68
52957;BME280;38819;42.692;23.342;2022-09-17T01:33:41;94437.66;;;19.00;78.43
52957;BME280;38819;42.692;23.342;2022-09-17T01:36:36;94450.91;;;18.98;78.56
52957;BME280;38819;42.692;23.342;2022-09-17T01:42:23;94433.72;;;18.98;79.17
52957;BME280;38819;42.692;23.342;2022-09-17T01:45:13;94412.25;;;19.00;79.15
52957;BME280;38819;42.692;23.342;2022-09-17T01:47:52;94428.66;;;19.00;78.98
52957;BME280;38819;42.692;23.342;2022-09-17T01:50:24;94395.81;;;19.00;79.22
52957;BME280;38819;42.692;23.342;2022-09-17T01:52:53;94404.44;;;19.02;79.03
52957;BME280;38819;42.692;23.342;2022-09-17T01:55:19;94453.88;;;19.13;78.51
52957;BME280;38819;42.692;23.342;2022-09-17T02:00:17;94441.97;;;18.59;80.87
52957;BME280;38819;42.692;23.342;2022-09-17T02:02:55;94444.69;;;18.59;80.74
52957;BME280;38819;42.692;23.342;2022-09-17T02:08:08;94411.81;;;18.55;80.69
52957;BME280;38819;42.692;23.342;2022-09-17T02:10:39;94383.78;;;18.39;80.81
52957;BME280;38819;42.692;23.342;2022-09-17T02:13:12;94384.69;;;18.23;82.13
52957;BME280;38819;42.692;23.342;2022-09-17T02:15:44;94371.34;;;18.41;81.64
52957;BME280;38819;42.692;23.342;2022-09-17T02:18:24;94346.09;;;18.48;81.70
52957;BME280;38819;42.692;23.342;2022-09-17T02:21:20;94300.75;;;18.47;81.93
52957;BME280;38819;42.692;23.342;2022-09-17T02:26:49;94328.19;;;18.54;81.30
52957;BME280;38819;42.692;23.342;2022-09-17T02:29:33;94321.28;;;18.60;81.01
52957;BME280;38819;42.692;23.342;2022-09-17T02:31:59;94303.97;;;18.52;81.45
52957;BME280;38819;42.692;23.342;2022-09-17T02:34:27;94346.75;;;18.41;81.47
52957;BME280;38819;42.692;23.342;2022-09-17T02:36:54;94331.63;;;18.24;82.22
52957;BME280;38819;42.692;23.342;2022-09-17T02:39:20;94349.75;;;17.93;83.29
52957;BME280;38819;42.692;23.342;2022-09-17T02:41:52;94336.53;;;17.76;84.38
52957;BME280;38819;42.692;23.342;2022-09-17T02:45:05;94345.28;;;17.66;84.12
52957;BME280;38819;42.692;23.342;2022-09-17T03:00:42;94310.81;;;17.96;82.15
52957;BME280;38819;42.692;23.342;2022-09-17T03:03:22;94302.00;;;18.07;81.42
52957;BME280;38819;42.692;23.342;2022-09-17T03:05:52;94290.53;;;18.21;81.04
52957;BME280;38819;42.692;23.342;2022-09-17T03:08:18;94304.47;;;18.35;80.60
52957;BME280;38819;42.692;23.342;2022-09-17T03:10:45;94290.53;;;18.44;80.14
52957;BME280;38819;42.692;23.342;2022-09-17T03:13:14;94294.75;;;18.38;80.67
52957;BME280;38819;42.692;23.342;2022-09-17T03:15:39;94326.44;;;18.42;80.32
52957;BME280;38819;42.692;23.342;2022-09-17T03:18:05;94310.50;;;18.44;79.72
52957;BME280;38819;42.692;23.342;2022-09-17T03:20:31;94303.53;;;18.50;79.51
52957;BME280;38819;42.692;23.342;2022-09-17T03:22:56;94297.75;;;18.56;79.73
52957;BME280;38819;42.692;23.342;2022-09-17T03:25:22;94286.88;;;18.59;79.01
52957;BME280;38819;42.692;23.342;2022-09-17T03:27:47;94282.28;;;18.63;79.08
52957;BME280;38819;42.692;23.342;2022-09-17T03:30:13;94281.91;;;18.65;78.53
52957;BME280;38819;42.692;23.342;2022-09-17T03:32:38;94292.13;;;18.68;78.24
52957;BME280;38819;42.692;23.342;2022-09-17T03:35:04;94269.91;;;18.73;78.31
52957;BME280;38819;42.692;23.342;2022-09-17T03:37:29;94270.34;;;18.75;78.40
52957;BME280;38819;42.692;23.342;2022-09-17T03:39:55;94270.03;;;18.80;78.27
52957;BME280;38819;42.692;23.342;2022-09-17T03:42:20;94278.72;;;18.86;78.65
52957;BME280;38819;42.692;23.342;2022-09-17T03:44:46;94262.78;;;18.92;78.62
52957;BME280;38819;42.692;23.342;2022-09-17T03:47:11;94287.41;;;18.92;78.89
52957;BME280;38819;42.692;23.342;2022-09-17T03:49:37;94267.50;;;18.91;78.54
52957;BME280;38819;42.692;23.342;2022-09-17T03:52:02;94241.34;;;18.70;79.88
52957;BME280;38819;42.692;23.342;2022-09-17T03:54:27;94269.06;;;18.69;79.86
52957;BME280;38819;42.692;23.342;2022-09-17T03:56:53;94276.13;;;18.70;79.81
52957;BME280;38819;42.692;23.342;2022-09-17T03:59:18;94260.53;;;18.74;79.28
52957;BME280;38819;42.692;23.342;2022-09-17T04:01:44;94276.63;;;18.79;79.32
52957;BME280;38819;42.692;23.342;2022-09-17T04:04:09;94276.75;;;18.83;78.78
52957;BME280;38819;42.692;23.342;2022-09-17T04:06:35;94289.75;;;18.90;78.84
52957;BME280;38819;42.692;23.342;2022-09-17T04:09:00;94301.19;;;18.76;79.41
52957;BME280;38819;42.692;23.342;2022-09-17T04:11:28;94285.09;;;18.70;79.80
52957;BME280;38819;42.692;23.342;2022-09-17T04:13:53;94300.78;;;18.74;79.94
52957;BME280;38819;42.692;23.342;2022-09-17T04:16:18;94302.78;;;18.77;80.02
52957;BME280;38819;42.692;23.342;2022-09-17T04:18:44;94330.56;;;18.79;79.76
52957;BME280;38819;42.692;23.342;2022-09-17T04:21:09;94343.59;;;18.85;79.61
52957;BME280;38819;42.692;23.342;2022-09-17T04:23:34;94340.09;;;18.85;79.86
52957;BME280;38819;42.692;23.342;2022-09-17T04:26:00;94374.47;;;18.86;79.50
52957;BME280;38819;42.692;23.342;2022-09-17T04:28:26;94379.22;;;18.89;79.44
52957;BME280;38819;42.692;23.342;2022-09-17T04:30:51;94374.19;;;18.91;79.18
52957;BME280;38819;42.692;23.342;2022-09-17T04:33:16;94382.44;;;18.95;79.33
52957;BME280;38819;42.692;23.342;2022-09-17T04:35:42;94391.44;;;18.95;79.52
52957;BME280;38819;42.692;23.342;2022-09-17T04:38:08;94406.41;;;19.01;79.60
52957;BME280;38819;42.692;23.342;2022-09-17T04:40:34;94412.09;;;18.93;79.72
52957;BME280;38819;42.692;23.342;2022-09-17T04:42:59;94418.75;;;18.92;79.39
52957;BME280;38819;42.692;23.342;2022-09-17T04:45:28;94434.50;;;18.98;79.29
52957;BME280;38819;42.692;23.342;2022-09-17T04:47:53;94431.81;;;19.02;79.03
52957;BME280;38819;42.692;23.342;2022-09-17T04:50:20;94430.88;;;18.94;80.15
52957;BME280;38819;42.692;23.342;2022-09-17T04:52:45;94441.47;;;18.96;80.16
52957;BME280;38819;42.692;23.342;2022-09-17T04:55:12;94454.13;;;19.04;80.21
52957;BME280;38819;42.692;23.342;2022-09-17T04:57:37;94469.69;;;19.00;80.51
52957;BME280;38819;42.692;23.342;2022-09-17T05:00:05;94478.69;;;18.81;81.81
52957;BME280;38819;42.692;23.342;2022-09-17T05:02:34;94479.19;;;18.83;81.85
52957;BME280;38819;42.692;23.342;2022-09-17T05:04:59;94472.44;;;18.80;81.33
52957;BME280;38819;42.692;23.342;2022-09-17T05:07:24;94461.81;;;18.75;81.11
52957;BME280;38819;42.692;23.342;2022-09-17T05:09:50;94450.50;;;18.77;81.02
52957;BME280;38819;42.692;23.342;2022-09-17T05:12:15;94435.19;;;18.72;81.42
52957;BME280;38819;42.692;23.342;2022-09-17T05:14:41;94439.50;;;18.73;80.93
52957;BME280;38819;42.692;23.342;2022-09-17T05:17:06;94435.81;;;18.85;81.08
52957;BME280;38819;42.692;23.342;2022-09-17T05:19:32;94439.91;;;18.75;82.34
52957;BME280;38819;42.692;23.342;2022-09-17T05:21:57;94427.97;;;18.83;81.82
52957;BME280;38819;42.692;23.342;2022-09-17T05:24:22;94417.09;;;18.87;81.71
52957;BME280;38819;42.692;23.342;2022-09-17T05:26:48;94400.75;;;18.91;81.96
52957;BME280;38819;42.692;23.342;2022-09-17T05:29:13;94393.81;;;18.97;82.96
52957;BME280;38819;42.692;23.342;2022-09-17T05:31:39;94392.28;;;18.99;83.38
52957;BME280;38819;42.692;23.342;2022-09-17T05:34:04;94404.34;;;18.95;83.41
52957;BME280;38819;42.692;23.342;2022-09-17T05:36:30;94416.69;;;18.85;83.42
52957;BME280;38819;42.692;23.342;2022-09-17T05:38:55;94418.75;;;18.72;83.77
52957;BME280;38819;42.692;23.342;2022-09-17T05:41:20;94413.06;;;18.58;84.83
52957;BME280;38819;42.692;23.342;2022-09-17T05:43:46;94422.09;;;18.62;84.84
52957;BME280;38819;42.692;23.342;2022-09-17T05:46:11;94425.50;;;18.55;85.67
52957;BME280;38819;42.692;23.342;2022-09-17T05:48:37;94430.38;;;18.65;84.25
52957;BME280;38819;42.692;23.342;2022-09-17T05:51:02;94435.22;;;18.76;84.14
52957;BME280;38819;42.692;23.342;2022-09-17T05:53:27;94423.72;;;18.86;83.75
52957;BME280;38819;42.692;23.342;2022-09-17T05:55:57;94420.75;;;18.95;84.18
52957;BME280;38819;42.692;23.342;2022-09-17T05:58:22;94423.53;;;18.98;83.68
52957;BME280;38819;42.692;23.342;2022-09-17T06:00:48;94437.41;;;19.09;83.96
52957;BME280;38819;42.692;23.342;2022-09-17T06:03:16;94426.59;;;19.16;84.62
52957;BME280;38819;42.692;23.342;2022-09-17T06:05:42;94413.38;;;19.22;85.11
52957;BME280;38819;42.692;23.342;2022-09-17T06:08:08;94416.19;;;19.29;85.05
52957;BME280;38819;42.692;23.342;2022-09-17T06:10:38;94415.06;;;19.30;85.21
52957;BME280;38819;42.692;23.342;2022-09-17T06:13:03;94420.22;;;19.35;84.91
52957;BME280;38819;42.692;23.342;2022-09-17T06:15:29;94439.28;;;19.05;84.93
52957;BME280;38819;42.692;23.342;2022-09-17T06:17:55;94460.25;;;18.97;85.33
52957;BME280;38819;42.692;23.342;2022-09-17T06:20:20;94465.31;;;18.95;85.49
52957;BME280;38819;42.692;23.342;2022-09-17T06:22:46;94479.66;;;18.88;85.93
52957;BME280;38819;42.692;23.342;2022-09-17T06:25:11;94481.97;;;18.86;86.42
52957;BME280;38819;42.692;23.342;2022-09-17T06:27:37;94481.91;;;18.83;85.65
52957;BME280;38819;42.692;23.342;2022-09-17T06:30:04;94485.56;;;18.91;85.70
52957;BME280;38819;42.692;23.342;2022-09-17T06:32:31;94507.50;;;18.94;84.61
52957;BME280;38819;42.692;23.342;2022-09-17T06:34:56;94522.34;;;18.93;84.83
52957;BME280;38819;42.692;23.342;2022-09-17T06:37:30;94516.16;;;18.96;84.29
52957;BME280;38819;42.692;23.342;2022-09-17T06:39:56;94533.06;;;19.02;84.28
52957;BME280;38819;42.692;23.342;2022-09-17T06:42:26;94513.31;;;19.12;82.87
52957;BME280;38819;42.692;23.342;2022-09-17T06:44:55;94507.53;;;19.17;81.64
52957;BME280;38819;42.692;23.342;2022-09-17T06:47:23;94498.22;;;19.22;81.61
52957;BME280;38819;42.692;23.342;2022-09-17T06:49:49;94486.25;;;19.30;81.57
52957;BME280;38819;42.692;23.342;2022-09-17T06:52:15;94474.88;;;19.28;81.81
52957;BME280;38819;42.692;23.342;2022-09-17T06:54:40;94470.38;;;19.16;82.72
52957;BME280;38819;42.692;23.342;2022-09-17T06:57:05;94464.59;;;19.21;83.28
52957;BME280;38819;42.692;23.342;2022-09-17T06:59:31;94474.50;;;19.30;83.92
52957;BME280;38819;42.692;23.342;2022-09-17T07:01:56;94461.34;;;19.39;84.54
52957;BME280;38819;42.692;23.342;2022-09-17T07:04:22;94446.97;;;19.46;84.78
52957;BME280;38819;42.692;23.342;2022-09-17T07:06:47;94445.38;;;19.18;85.56
52957;BME280;38819;42.692;23.342;2022-09-17T07:09:13;94435.53;;;19.13;85.94
52957;BME280;38819;42.692;23.342;2022-09-17T07:11:38;94421.53;;;19.18;83.93
52957;BME280;38819;42.692;23.342;2022-09-17T07:14:04;94419.66;;;19.26;83.90
52957;BME280;38819;42.692;23.342;2022-09-17T07:16:31;94415.97;;;19.38;85.19
52957;BME280;38819;42.692;23.342;2022-09-17T07:19:01;94404.38;;;19.48;85.52
52957;BME280;38819;42.692;23.342;2022-09-17T07:21:26;94390.25;;;19.46;87.33
52957;BME280;38819;42.692;23.342;2022-09-17T07:23:52;94373.41;;;19.44;85.12
52957;BME280;38819;42.692;23.342;2022-09-17T07:26:17;94373.63;;;19.32;84.50
52957;BME280;38819;42.692;23.342;2022-09-17T07:28:43;94386.34;;;19.47;83.68
52957;BME280;38819;42.692;23.342;2022-09-17T07:31:10;94402.16;;;19.57;82.97
52957;BME280;38819;42.692;23.342;2022-09-17T07:33:36;94409.66;;;19.64;83.26
52957;BME280;38819;42.692;23.342;2022-09-17T07:36:05;94402.88;;;19.54;82.24
52957;BME280;38819;42.692;23.342;2022-09-17T07:38:31;94400.91;;;19.51;81.69
52957;BME280;38819;42.692;23.342;2022-09-17T07:40:59;94389.28;;;19.31;81.91
52957;BME280;38819;42.692;23.342;2022-09-17T07:43:26;94383.78;;;19.31;81.50
52957;BME280;38819;42.692;23.342;2022-09-17T07:45:52;94385.00;;;19.34;81.92
52957;BME280;38819;42.692;23.342;2022-09-17T07:48:19;94383.19;;;19.45;81.58
52957;BME280;38819;42.692;23.342;2022-09-17T07:50:45;94375.13;;;19.56;82.70
52957;BME280;38819;42.692;23.342;2022-09-17T07:53:11;94393.22;;;19.64;80.25
52957;BME280;38819;42.692;23.342;2022-09-17T07:55:36;94392.34;;;19.83;80.20
52957;BME280;38819;42.692;23.342;2022-09-17T07:58:02;94381.88;;;19.92;79.79
52957;BME280;38819;42.692;23.342;2022-09-17T08:00:27;94376.88;;;19.98;78.46
52957;BME280;38819;42.692;23.342;2022-09-17T08:02:56;94384.81;;;20.07;77.77
52957;BME280;38819;42.692;23.342;2022-09-17T08:05:22;94373.16;;;20.13;77.69
52957;BME280;38819;42.692;23.342;2022-09-17T08:07:53;94369.75;;;20.27;77.61
52957;BME280;38819;42.692;23.342;2022-09-17T08:10:19;94370.25;;;20.36;77.50
52957;BME280;38819;42.692;23.342;2022-09-17T08:12:52;94374.59;;;20.41;75.65
52957;BME280;38819;42.692;23.342;2022-09-17T08:15:18;94368.06;;;20.53;76.34
52957;BME280;38819;42.692;23.342;2022-09-17T08:17:47;94367.25;;;20.49;75.36
52957;BME280;38819;42.692;23.342;2022-09-17T08:20:13;94356.66;;;20.47;74.87
52957;BME280;38819;42.692;23.342;2022-09-17T08:22:40;94356.31;;;20.52;73.81
52957;BME280;38819;42.692;23.342;2022-09-17T08:25:06;94360.09;;;20.41;74.62
52957;BME280;38819;42.692;23.342;2022-09-17T08:27:32;94360.94;;;20.45;74.38
52957;BME280;38819;42.692;23.342;2022-09-17T08:29:58;94345.34;;;20.52;72.99
52957;BME280;38819;42.692;23.342;2022-09-17T08:32:24;94347.41;;;20.63;72.42
52957;BME280;38819;42.692;23.342;2022-09-17T08:34:49;94353.72;;;20.63;72.43
52957;BME280;38819;42.692;23.342;2022-09-17T08:37:15;94359.25;;;20.70;71.76
52957;BME280;38819;42.692;23.342;2022-09-17T08:39:40;94352.28;;;20.80;71.45
52957;BME280;38819;42.692;23.342;2022-09-17T08:44:45;94355.19;;;20.98;69.51
52957;BME280;38819;42.692;23.342;2022-09-17T08:49:52;94347.41;;;21.11;66.38
52957;BME280;38819;42.692;23.342;2022-09-17T09:05:20;94346.25;;;21.12;67.74
52957;BME280;38819;42.692;23.342;2022-09-17T09:08:21;94342.28;;;21.06;68.09
52957;BME280;38819;42.692;23.342;2022-09-17T09:11:02;94359.16;;;21.08;68.30
52957;BME280;38819;42.692;23.342;2022-09-17T09:13:37;94350.09;;;21.00;68.48
52957;BME280;38819;42.692;23.342;2022-09-17T09:19:39;94359.25;;;21.19;68.55
52957;BME280;38819;42.692;23.342;2022-09-17T09:24:58;94378.09;;;21.24;71.31
52957;BME280;38819;42.692;23.342;2022-09-17T09:27:28;94381.25;;;21.26;71.59
52957;BME280;38819;42.692;23.342;2022-09-17T09:30:05;94389.09;;;21.24;72.30
52957;BME280;38819;42.692;23.342;2022-09-17T09:32:59;94407.56;;;21.31;72.64
52957;BME280;38819;42.692;23.342;2022-09-17T09:35:35;94408.81;;;21.37;72.11
52957;BME280;38819;42.692;23.342;2022-09-17T09:38:14;94417.00;;;21.33;72.35
52957;BME280;38819;42.692;23.342;2022-09-17T09:41:01;94419.00;;;21.36;71.61
52957;BME280;38819;42.692;23.342;2022-09-17T09:43:44;94423.72;;;21.39;71.09
52957;BME280;38819;42.692;23.342;2022-09-17T09:49:21;94440.97;;;21.36;71.27
52957;BME280;38819;42.692;23.342;2022-09-17T09:52:13;94448.78;;;21.31;72.51
52957;BME280;38819;42.692;23.342;2022-09-17T09:57:44;94452.56;;;21.15;74.75
52957;BME280;38819;42.692;23.342;2022-09-17T10:00:36;94459.94;;;21.07;74.92
52957;BME280;38819;42.692;23.342;2022-09-17T10:03:14;94425.00;;;21.04;75.49
52957;BME280;38819;42.692;23.342;2022-09-17T10:08:16;94404.97;;;20.59;80.78
52957;BME280;38819;42.692;23.342;2022-09-17T10:10:55;94364.94;;;20.54;81.12
52957;BME280;38819;42.692;23.342;2022-09-17T10:13:21;94348.56;;;20.24;81.31
52957;BME280;38819;42.692;23.342;2022-09-17T10:15:47;94357.88;;;20.16;82.04
52957;BME280;38819;42.692;23.342;2022-09-17T10:18:16;94337.72;;;19.97;83.42
52957;BME280;38819;42.692;23.342;2022-09-17T10:20:50;94333.03;;;19.98;83.97
52957;BME280;38819;42.692;23.342;2022-09-17T10:23:16;94306.25;;;19.84;84.39
52957;BME280;38819;42.692;23.342;2022-09-17T10:25:42;94308.03;;;19.73;84.67
52957;BME280;38819;42.692;23.342;2022-09-17T10:28:36;94298.66;;;19.74;85.07
52957;BME280;38819;42.692;23.342;2022-09-17T10:31:07;94302.69;;;19.80;85.13
52957;BME280;38819;42.692;23.342;2022-09-17T10:33:39;94300.38;;;19.86;84.49
52957;BME280;38819;42.692;23.342;2022-09-17T10:36:11;94323.97;;;19.94;84.54
52957;BME280;38819;42.692;23.342;2022-09-17T10:38:44;94320.53;;;20.01;83.46
52957;BME280;38819;42.692;23.342;2022-09-17T10:41:14;94317.00;;;20.00;82.32
52957;BME280;38819;42.692;23.342;2022-09-17T10:43:40;94315.34;;;19.92;82.98
52957;BME280;38819;42.692;23.342;2022-09-17T10:46:13;94316.25;;;20.03;83.00
52957;BME280;38819;42.692;23.342;2022-09-17T10:49:19;94305.72;;;20.09;82.87
52957;BME280;38819;42.692;23.342;2022-09-17T10:51:47;94290.53;;;20.15;82.28
52957;BME280;38819;42.692;23.342;2022-09-17T10:57:05;94287.34;;;20.13;81.97
52957;BME280;38819;42.692;23.342;2022-09-17T11:08:27;94284.25;;;19.77;82.83
52957;BME280;38819;42.692;23.342;2022-09-17T11:11:05;94297.22;;;19.80;82.16
52957;BME280;38819;42.692;23.342;2022-09-17T11:19:22;94299.09;;;20.10;81.67
52957;BME280;38819;42.692;23.342;2022-09-17T11:27:25;94333.06;;;20.02;83.80
52957;BME280;38819;42.692;23.342;2022-09-17T11:30:09;94333.06;;;20.02;83.57
52957;BME280;38819;42.692;23.342;2022-09-17T11:35:35;94321.25;;;20.31;81.74
52957;BME280;38819;42.692;23.342;2022-09-17T11:38:09;94317.34;;;20.36;82.19
52957;BME280;38819;42.692;23.342;2022-09-17T11:41:10;94322.03;;;20.32;81.40
52957;BME280;38819;42.692;23.342;2022-09-17T11:43:43;94305.19;;;20.30;82.37
52957;BME280;38819;42.692;23.342;2022-09-17T11:48:43;94298.41;;;20.20;83.75
52957;BME280;38819;42.692;23.342;2022-09-17T11:51:30;94304.63;;;20.13;83.95
52957;BME280;38819;42.692;23.342;2022-09-17T11:54:02;94286.56;;;20.12;84.41
52957;BME280;38819;42.692;23.342;2022-09-17T11:56:40;94279.41;;;20.01;83.62
52957;BME280;38819;42.692;23.342;2022-09-17T11:59:17;94281.81;;;20.06;84.78
52957;BME280;38819;42.692;23.342;2022-09-17T12:10:42;94267.84;;;19.80;84.25
52957;BME280;38819;42.692;23.342;2022-09-17T12:15:49;94261.94;;;19.75;83.48
52957;BME280;38819;42.692;23.342;2022-09-17T12:18:49;94274.00;;;19.74;85.12
52957;BME280;38819;42.692;23.342;2022-09-17T12:21:21;94270.63;;;19.84;84.22
52957;BME280;38819;42.692;23.342;2022-09-17T12:24:06;94273.50;;;19.95;82.57
52957;BME280;38819;42.692;23.342;2022-09-17T12:29:40;94249.97;;;19.94;85.45
52957;BME280;38819;42.692;23.342;2022-09-17T12:34:55;94261.00;;;20.01;85.10
52957;BME280;38819;42.692;23.342;2022-09-17T12:42:58;94235.59;;;20.04;82.20
52957;BME280;38819;42.692;23.342;2022-09-17T12:48:29;94229.59;;;20.36;83.63
52957;BME280;38819;42.692;23.342;2022-09-17T12:57:27;94239.69;;;20.69;85.22
52957;BME280;38819;42.692;23.342;2022-09-17T13:00:07;94244.03;;;20.74;85.81
52957;BME280;38819;42.692;23.342;2022-09-17T13:16:06;94221.91;;;20.52;84.41
52957;BME280;38819;42.692;23.342;2022-09-17T13:21:51;94226.31;;;20.64;84.92
52957;BME280;38819;42.692;23.342;2022-09-17T13:24:21;94223.22;;;20.69;85.11
52957;BME280;38819;42.692;23.342;2022-09-17T13:26:50;94219.75;;;20.76;85.00
52957;BME280;38819;42.692;23.342;2022-09-17T13:34:53;94198.25;;;20.85;84.35
52957;BME280;38819;42.692;23.342;2022-09-17T13:37:19;94183.31;;;20.79;82.49
52957;BME280;38819;42.692;23.342;2022-09-17T13:39:49;94179.44;;;20.84;80.09
52957;BME280;38819;42.692;23.342;2022-09-17T13:42:28;94179.41;;;20.77;78.07
52957;BME280;38819;42.692;23.342;2022-09-17T13:47:34;94155.91;;;20.86;78.88
52957;BME280;38819;42.692;23.342;2022-09-17T13:50:06;94148.09;;;20.88;80.40
52957;BME280;38819;42.692;23.342;2022-09-17T13:52:35;94135.28;;;20.48;81.36
52957;BME280;38819;42.692;23.342;2022-09-17T13:55:02;94126.69;;;20.53;81.83
52957;BME280;38819;42.692;23.342;2022-09-17T13:57:29;94114.91;;;20.49;82.70
52957;BME280;38819;42.692;23.342;2022-09-17T13:59:58;94119.28;;;20.57;83.14
52957;BME280;38819;42.692;23.342;2022-09-17T14:02:28;94111.44;;;20.59;83.40
52957;BME280;38819;42.692;23.342;2022-09-17T14:04:55;94111.44;;;20.59;81.05
52957;BME280;38819;42.692;23.342;2022-09-17T14:15:03;94103.59;;;20.54;81.51
52957;BME280;38819;42.692;23.342;2022-09-17T14:17:49;94117.31;;;20.58;81.19
52957;BME280;38819;42.692;23.342;2022-09-17T14:20:18;94124.38;;;20.55;80.14
52957;BME280;38819;42.692;23.342;2022-09-17T14:22:56;94136.91;;;20.60;79.88
52957;BME280;38819;42.692;23.342;2022-09-17T14:25:39;94134.59;;;20.62;80.96
52957;BME280;38819;42.692;23.342;2022-09-17T14:28:27;94139.56;;;20.42;79.92
52957;BME280;38819;42.692;23.342;2022-09-17T14:30:56;94144.25;;;20.41;81.85
52957;BME280;38819;42.692;23.342;2022-09-17T14:33:26;94138.13;;;20.07;83.09
52957;BME280;38819;42.692;23.342;2022-09-17T14:36:00;94113.63;;;19.76;83.60
52957;BME280;38819;42.692;23.342;2022-09-17T14:38:37;94101.97;;;19.49;86.40
52957;BME280;38819;42.692;23.342;2022-09-17T14:43:44;94053.44;;;19.46;86.02
52957;BME280;38819;42.692;23.342;2022-09-17T14:46:35;93995.34;;;19.22;86.65
52957;BME280;38819;42.692;23.342;2022-09-17T14:49:25;94079.41;;;19.18;87.36
52957;BME280;38819;42.692;23.342;2022-09-17T14:51:56;94097.91;;;19.32;86.45
52957;BME280;38819;42.692;23.342;2022-09-17T14:54:28;94107.81;;;19.44;86.29
52957;BME280;38819;42.692;23.342;2022-09-17T14:59:46;94060.97;;;19.15;85.47
52957;BME280;38819;42.692;23.342;2022-09-17T15:02:31;94052.78;;;19.15;85.27
52957;BME280;38819;42.692;23.342;2022-09-17T15:04:57;94069.69;;;19.24;84.45
52957;BME280;38819;42.692;23.342;2022-09-17T15:07:23;94076.78;;;19.33;84.16
52957;BME280;38819;42.692;23.342;2022-09-17T15:09:49;94066.63;;;19.30;83.52
52957;BME280;38819;42.692;23.342;2022-09-17T15:12:22;94057.34;;;19.41;83.64
52957;BME280;38819;42.692;23.342;2022-09-17T15:14:50;94058.50;;;19.44;81.17
52957;BME280;38819;42.692;23.342;2022-09-17T15:17:17;94045.16;;;19.35;82.06
52957;BME280;38819;42.692;23.342;2022-09-17T15:19:51;94037.16;;;19.19;83.15
52957;BME280;38819;42.692;23.342;2022-09-17T15:22:33;94035.13;;;19.13;80.67
52957;BME280;38819;42.692;23.342;2022-09-17T15:25:07;94038.75;;;19.20;81.10
52957;BME280;38819;42.692;23.342;2022-09-17T15:27:39;94026.38;;;19.37;80.79
52957;BME280;38819;42.692;23.342;2022-09-17T15:30:32;94028.41;;;19.48;81.42
52957;BME280;38819;42.692;23.342;2022-09-17T15:32:58;94032.00;;;19.52;79.34
52957;BME280;38819;42.692;23.342;2022-09-17T15:35:31;94013.59;;;19.49;78.14
52957;BME280;38819;42.692;23.342;2022-09-17T15:38:20;94024.22;;;19.61;77.97
52957;BME280;38819;42.692;23.342;2022-09-17T15:40:49;94031.78;;;19.71;78.20
52957;BME280;38819;42.692;23.342;2022-09-17T15:43:33;94034.97;;;19.77;79.38
52957;BME280;38819;42.692;23.342;2022-09-17T15:46:24;94037.00;;;19.91;78.28
52957;BME280;38819;42.692;23.342;2022-09-17T15:48:52;94032.72;;;19.93;82.13
52957;BME280;38819;42.692;23.342;2022-09-17T15:51:28;94034.72;;;19.96;82.97
52957;BME280;38819;42.692;23.342;2022-09-17T15:53:56;94041.34;;;19.95;83.40
52957;BME280;38819;42.692;23.342;2022-09-17T15:56:28;94057.06;;;20.02;81.31
52957;BME280;38819;42.692;23.342;2022-09-17T15:59:02;94039.47;;;20.07;82.23
52957;BME280;38819;42.692;23.342;2022-09-17T16:08:59;93988.28;;;19.66;80.81
52957;BME280;38819;42.692;23.342;2022-09-17T16:11:29;94001.91;;;19.59;80.93